Time;durP1;ratioP1;P1;durP2;ratioP2;P2;SDS_P1;SDS_P2;PMS_P1;PMS_P2;Temp;Humidity;BMP_temperature;BMP_pressure;BME280_temperature;BME280_humidity;BME280_pressure;Samples;Min_cycle;Max_cycle;Signal;HPM_P1;HPM_P2
2023/01/22 05:24:48;;;;;;;41.20;21.90;;;;;;;2.44;83.94;102361.79;103604;1283;613072;-89
2023/01/22 05:27:15;;;;;;;42.30;22.90;;;;;;;2.43;83.26;102365.06;106278;1260;59227;-89
2023/01/22 05:29:52;;;;;;;42.40;20.90;;;;;;;2.35;82.91;102368.14;106425;1254;59659;-89
2023/01/22 05:32:55;;;;;;;42.40;20.00;;;;;;;2.27;82.82;102372.27;106296;1254;73400;-90
2023/01/22 05:35:25;;;;;;;31.80;19.20;;;;;;;2.23;82.73;102378.30;106286;1253;64100;-88
2023/01/22 05:37:51;;;;;;;38.30;18.30;;;;;;;2.20;82.90;102382.61;105939;1256;758938;-88
2023/01/22 05:40:21;;;;;;;35.60;18.50;;;;;;;2.21;82.85;102386.06;106553;1249;61750;-89
2023/01/22 05:42:48;;;;;;;42.00;19.40;;;;;;;2.20;82.83;102387.43;107689;1251;60819;-89
2023/01/22 05:45:16;;;;;;;47.20;21.30;;;;;;;2.18;83.02;102388.63;107276;1253;72650;-90
2023/01/22 05:48:00;;;;;;;39.30;18.70;;;;;;;2.16;82.76;102391.73;107053;1254;62810;-90
2023/01/22 05:50:50;;;;;;;38.40;20.00;;;;;;;2.11;82.62;102395.51;106826;1256;72132;-92
2023/01/22 05:53:17;;;;;;;47.50;20.70;;;;;;;2.04;82.76;102394.98;107010;1254;61941;-91
2023/01/22 05:55:44;;;;;;;41.60;21.00;;;;;;;2.02;83.11;102393.92;106727;1256;60255;-91
2023/01/22 05:58:11;;;;;;;36.40;19.40;;;;;;;2.08;83.34;102397.92;106521;1251;72860;-90
2023/01/22 06:00:43;;;;;;;46.30;22.60;;;;;;;2.12;83.21;102395.52;107430;1251;63816;-91
2023/01/22 06:03:11;;;;;;;37.50;20.30;;;;;;;2.13;82.91;102400.70;109422;1253;71607;-88
2023/01/22 06:05:44;;;;;;;41.00;20.40;;;;;;;2.18;82.86;102402.96;107863;1256;59576;-89
2023/01/22 06:08:15;;;;;;;40.20;21.10;;;;;;;2.20;82.58;102400.55;107745;1251;61202;-90
2023/01/22 06:10:49;;;;;;;42.00;20.50;;;;;;;2.18;82.50;102403.48;107468;1254;74347;-90
2023/01/22 06:13:16;;;;;;;44.50;20.90;;;;;;;2.18;82.08;102403.65;107241;1254;64884;-90
2023/01/22 06:15:44;;;;;;;32.30;18.10;;;;;;;2.15;81.92;102410.70;107207;1251;73486;-89
2023/01/22 06:18:22;;;;;;;36.90;18.70;;;;;;;2.13;82.00;102413.80;106675;1256;62805;-89
2023/01/22 06:20:52;;;;;;;30.70;15.90;;;;;;;2.10;82.02;102416.38;106414;1251;61436;-89
2023/01/22 06:23:21;;;;;;;39.70;17.60;;;;;;;2.11;81.96;102420.17;106481;1253;73721;-90
2023/01/22 06:25:53;;;;;;;33.30;16.40;;;;;;;2.09;82.42;102420.19;107550;1250;64331;-92
2023/01/22 06:28:23;;;;;;;29.30;14.70;;;;;;;2.13;82.76;102420.37;108512;1251;72550;-91
2023/01/22 06:30:51;;;;;;;36.20;14.70;;;;;;;2.14;82.63;102422.10;106399;1252;60871;-91
2023/01/22 06:33:18;;;;;;;43.00;17.50;;;;;;;2.15;82.55;102424.86;106578;1251;60274;-89
2023/01/22 06:35:52;;;;;;;32.60;16.60;;;;;;;2.16;82.60;102425.73;107258;1253;73808;-91
2023/01/22 06:38:22;;;;;;;;;;;;;;;2.20;82.54;102431.10;107049;1251;63994;-91
2023/01/22 06:40:55;;;;;;;36.30;16.70;;;;;;;2.20;82.44;102434.73;106793;1251;74213;-90
2023/01/22 06:43:32;;;;;;;34.10;15.90;;;;;;;2.14;82.44;102437.27;106882;1249;59646;-93
2023/01/22 06:46:02;;;;;;;33.80;17.30;;;;;;;2.14;82.53;102438.83;106625;1255;60375;-90
2023/01/22 06:48:45;;;;;;;33.20;17.30;;;;;;;2.15;82.50;102447.11;107344;1253;73017;-89
2023/01/22 06:51:14;;;;;;;28.60;15.60;;;;;;;2.17;82.54;102452.46;107403;1258;63518;-91
2023/01/22 06:53:41;;;;;;;35.70;15.90;;;;;;;2.16;82.30;102454.02;108767;1256;73463;-87
2023/01/22 06:56:08;;;;;;;36.00;17.40;;;;;;;2.21;82.85;102458.02;108735;1256;61310;-90
2023/01/22 06:58:35;;;;;;;39.10;18.30;;;;;;;2.29;82.40;102458.73;106886;1256;61249;-92
2023/01/22 07:01:04;;;;;;;30.70;16.10;;;;;;;2.34;82.05;102454.60;106326;1256;72703;-90
2023/01/22 07:03:31;;;;;;;34.40;15.60;;;;;;;2.38;81.71;102454.63;106758;1254;64862;-88
2023/01/22 07:06:00;;;;;;;39.80;18.40;;;;;;;2.40;81.68;102454.81;107433;1251;73700;-89
2023/01/22 07:08:29;;;;;;;30.20;15.00;;;;;;;2.42;81.51;102458.10;108475;1251;59632;-91
2023/01/22 07:10:58;;;;;;;36.00;14.00;;;;;;;2.38;80.54;102460.15;109464;1256;60330;-89
2023/01/22 07:13:26;;;;;;;31.40;16.00;;;;;;;2.30;80.71;102459.43;109435;1249;74046;-91
2023/01/22 07:28:04;;;;;;;27.50;12.40;;;;;;;2.19;80.69;102464.38;105478;1283;600202;-91
2023/01/22 07:31:02;;;;;;;26.80;13.50;;;;;;;2.16;80.68;102468.00;106762;1257;59148;-90
2023/01/22 07:33:32;;;;;;;28.90;11.60;;;;;;;2.17;80.59;102468.86;107835;1260;62322;-93
2023/01/22 07:36:08;;;;;;;18.80;11.10;;;;;;;2.20;80.57;102469.23;106554;1260;74150;-91
2023/01/22 07:38:36;;;;;;;30.90;14.30;;;;;;;2.19;80.24;102470.94;106102;1267;65623;-91
2023/01/22 07:41:05;;;;;;;25.10;11.70;;;;;;;2.16;80.43;102473.17;105821;1260;829123;-91
2023/01/22 07:43:51;;;;;;;29.60;13.40;;;;;;;2.18;80.31;102473.69;108169;1259;62139;-90
2023/01/22 07:46:22;;;;;;;22.00;11.50;;;;;;;2.17;80.10;102472.30;108496;1260;61210;-90
2023/01/22 07:48:50;;;;;;;27.40;13.00;;;;;;;2.14;80.20;102475.23;106980;1260;73167;-87
2023/01/22 07:51:17;;;;;;;31.70;12.20;;;;;;;2.15;80.42;102478.36;106944;1260;64516;-89
2023/01/22 07:53:44;;;;;;;30.40;12.50;;;;;;;2.21;80.57;102480.27;106171;1260;74646;-88
2023/01/22 07:56:14;;;;;;;24.70;11.30;;;;;;;2.27;80.15;102484.10;105756;1259;60416;-89
2023/01/22 07:58:42;;;;;;;25.40;12.40;;;;;;;2.28;79.52;102483.23;105916;1259;60890;-89
2023/01/22 08:01:11;;;;;;;23.70;12.90;;;;;;;2.26;79.44;102486.50;106364;1259;74975;-90
2023/01/22 08:03:38;;;;;;;29.60;12.30;;;;;;;2.25;79.59;102483.39;105872;1260;64629;-89
2023/01/22 10:44:26;;;;;;;25.00;9.30;;;;;;;2.88;73.75;102425.38;105218;1281;612702;-94
2023/01/22 10:47:28;;;;;;;27.60;10.60;;;;;;;3.08;73.46;102424.02;106565;1263;1433707;-93
2023/01/22 10:50:36;;;;;;;28.30;11.30;;;;;;;3.19;73.11;102420.40;107764;1267;59295;-96
2023/01/22 10:53:28;;;;;;;26.90;10.50;;;;;;;3.24;72.91;102420.91;107084;1265;71977;-93
2023/01/22 10:55:57;;;;;;;19.40;9.30;;;;;;;3.27;72.54;102417.98;107230;1268;63698;-95
2023/01/22 10:58:31;;;;;;;19.70;8.70;;;;;;;3.32;72.55;102416.74;107013;1264;74251;-93
2023/01/22 11:01:05;;;;;;;24.20;9.20;;;;;;;3.26;71.91;102416.77;107369;1264;62424;-96
2023/01/22 11:04:20;;;;;;;17.90;7.90;;;;;;;3.11;72.06;102410.02;108231;1262;60126;-95
2023/01/22 11:07:29;;;;;;;23.30;9.40;;;;;;;2.98;72.73;102403.80;107582;1256;71508;-95
2023/01/22 11:10:52;;;;;;;22.10;11.30;;;;;;;3.07;73.07;102406.40;108025;1256;64693;-95
2023/01/22 11:29:57;;;;;;;14.10;7.60;;;;;;;3.36;71.82;102410.02;108039;1269;65372;-92
2023/01/22 11:59:01;;;;;;;21.20;8.70;;;;;;;3.64;69.52;102414.46;106729;1282;612813;-95
2023/01/22 12:02:42;;;;;;;22.10;7.90;;;;;;;3.58;69.09;102415.68;105228;1272;58914;-95
2023/01/22 12:12:58;;;;;;;18.30;7.40;;;;;;;3.35;69.36;102421.42;106313;1282;72311;-92
2023/01/22 12:16:04;;;;;;;19.90;6.30;;;;;;;3.27;69.68;102421.60;104706;1299;62585;-94
2023/01/22 12:19:35;;;;;;;14.30;6.90;;;;;;;3.22;69.69;102419.17;105171;1299;60010;-94
2023/01/22 12:22:27;;;;;;;16.50;6.30;;;;;;;3.20;70.18;102423.67;104913;1299;71950;-91
2023/01/22 12:25:18;;;;;;;13.90;5.70;;;;;;;3.22;70.22;102420.39;104976;1300;63823;-94
2023/01/22 12:28:09;;;;;;;16.10;5.80;;;;;;;3.23;70.21;102420.91;106050;1293;72773;-94
2023/01/22 12:30:54;;;;;;;14.80;6.00;;;;;;;3.18;70.00;102417.29;106471;1291;59644;-95
2023/01/22 12:33:44;;;;;;;;;;;;;;;;;;;;;
2023/01/22 12:36:28;;;;;;;12.30;5.80;;;;;;;3.09;70.08;102428.69;107571;1275;73917;-94
2023/01/22 12:40:18;;;;;;;12.80;5.60;;;;;;;3.05;70.15;102432.50;107205;1278;65105;-94
2023/01/22 12:43:16;;;;;;;14.90;6.10;;;;;;;2.98;70.13;102430.92;107662;1279;72699;-93
2023/01/22 12:46:20;;;;;;;12.10;5.00;;;;;;;2.87;70.22;102432.47;107056;1279;60930;-94
2023/01/22 12:49:05;;;;;;;18.60;6.90;;;;;;;2.81;70.66;102428.66;106718;1281;63329;-93
2023/01/22 12:52:45;;;;;;;19.50;6.00;;;;;;;2.83;70.96;102433.15;106784;1281;72302;-94
2023/01/22 12:55:30;;;;;;;14.60;6.10;;;;;;;2.82;70.89;102432.30;105947;1290;61856;-94
2023/01/22 12:59:13;;;;;;;14.10;6.80;;;;;;;2.84;70.85;102434.88;106104;1289;72380;-95
2023/01/22 13:02:34;;;;;;;22.40;7.80;;;;;;;2.82;71.11;102428.66;105356;1289;59544;-93
2023/01/22 13:05:37;;;;;;;19.00;6.10;;;;;;;2.81;70.95;102432.12;105936;1289;59559;-93
2023/01/22 13:08:14;;;;;;;16.10;8.10;;;;;;;2.80;70.91;102432.46;105497;1289;74504;-94
2023/01/22 13:11:11;;;;;;;21.00;7.40;;;;;;;2.81;71.02;102432.47;104772;1289;65302;-95
2023/01/22 13:13:56;;;;;;;22.30;7.40;;;;;;;2.78;70.93;102428.67;103905;1290;72673;-95
2023/01/22 13:17:14;;;;;;;;;;;;;;;;;;;;;
2023/01/22 13:20:16;;;;;;;19.10;9.40;;;;;;;2.58;70.92;102429.65;104241;1290;61745;-92
2023/01/22 13:22:53;;;;;;;18.80;8.50;;;;;;;2.52;71.23;102434.30;104161;1294;74234;-93
2023/01/22 13:25:25;;;;;;;20.30;6.90;;;;;;;2.54;71.28;102436.55;104547;1292;64233;-96
2023/01/22 13:27:54;;;;;;;25.40;10.70;;;;;;;2.56;71.29;102433.80;104275;1293;71881;-94
2023/01/22 13:30:29;;;;;;;25.40;7.50;;;;;;;2.57;71.25;102436.22;106175;1285;60053;-93
2023/01/22 13:34:07;;;;;;;19.00;8.90;;;;;;;2.52;70.91;102438.45;106551;1285;59405;-93
2023/01/22 13:36:43;;;;;;;20.30;7.50;;;;;;;2.39;71.31;102437.88;105884;1285;73454;-94
2023/01/22 13:39:30;;;;;;;21.00;8.30;;;;;;;2.35;71.56;102442.02;106616;1285;64256;-94
2023/01/22 13:43:03;;;;;;;22.50;9.10;;;;;;;2.27;71.74;102442.16;106875;1278;70934;-92
2023/01/22 14:07:21;;;;;;;18.50;8.40;;;;;;;1.90;73.41;102448.36;107643;1280;59331;-92
2023/01/22 14:11:03;;;;;;;18.70;8.10;;;;;;;1.86;73.65;102450.92;106781;1283;59212;-93
2023/01/22 14:14:56;;;;;;;17.50;7.30;;;;;;;1.80;73.36;102452.63;107282;1282;73203;-92
2023/01/22 14:18:59;;;;;;;13.90;7.60;;;;;;;1.78;73.47;102456.92;107262;1278;62589;-93
2023/01/22 14:29:21;;;;;;;22.10;8.20;;;;;;;1.66;73.93;102462.36;107669;1275;59030;-93
2023/01/22 14:33:04;;;;;;;21.00;9.60;;;;;;;1.62;74.11;102462.17;107199;1278;74046;-94
2023/01/22 14:45:54;;;;;;;20.40;8.50;;;;;;;1.60;74.60;102474.39;106666;1280;60158;-93
2023/01/22 14:49:00;;;;;;;19.40;9.00;;;;;;;1.56;74.82;102475.91;106612;1288;71713;-92
2023/01/22 14:52:13;;;;;;;22.70;9.20;;;;;;;1.54;75.00;102475.73;107115;1278;65632;-92
2023/01/22 14:56:22;;;;;;;26.80;8.30;;;;;;;1.56;75.16;102476.26;107089;1283;72129;-93
2023/01/22 14:59:50;;;;;;;19.90;8.10;;;;;;;1.54;75.24;102477.29;106800;1285;58363;-91
2023/01/22 15:10:33;;;;;;;19.50;9.20;;;;;;;1.35;75.98;102482.81;105966;1296;62660;-92
2023/01/22 15:14:26;;;;;;;14.40;8.60;;;;;;;1.38;76.32;102487.16;105844;1296;71564;-92
2023/01/22 15:17:16;;;;;;;23.80;9.00;;;;;;;1.36;76.38;102489.72;105784;1296;58436;-93
2023/01/22 15:21:46;;;;;;;21.90;10.40;;;;;;;1.31;76.77;102487.27;105915;1274;59500;31
2023/01/22 15:34:25;;;;;;;;;;;;;;;;;;;;;
2023/01/22 15:50:22;;;;;;;24.90;10.20;;;;;;;0.91;80.39;102497.73;106981;1279;64494;-95
2023/01/22 15:52:59;;;;;;;23.70;10.60;;;;;;;0.88;80.99;102497.54;107270;1279;72599;-94
2023/01/22 15:55:52;;;;;;;19.00;9.40;;;;;;;0.91;81.22;102499.64;107016;1278;60176;-92
2023/01/22 15:58:43;;;;;;;19.40;9.10;;;;;;;0.92;81.62;102499.64;106893;1278;59234;-94
2023/01/22 16:01:25;;;;;;;13.30;8.00;;;;;;;0.98;81.68;102501.25;106983;1279;73986;-94
2023/01/22 16:04:11;;;;;;;24.60;11.20;;;;;;;0.98;81.84;102506.23;106284;1281;63134;-93
2023/01/22 16:06:51;;;;;;;22.10;9.30;;;;;;;0.94;82.14;102500.88;106711;1282;73253;-93
2023/01/22 16:10:25;;;;;;;14.10;7.50;;;;;;;0.98;82.35;102507.97;107204;1283;58371;-94
2023/01/22 20:10:32;;;;;;;21.00;12.30;;;;;;;0.66;87.57;102555.30;106227;1280;613492;-90
2023/01/22 20:13:10;;;;;;;19.30;12.60;;;;;;;0.93;87.01;102553.73;106594;1263;952846;-92
2023/01/22 20:15:40;;;;;;;23.10;12.50;;;;;;;1.05;86.76;102557.81;107742;1251;61234;-90
2023/01/22 20:18:09;;;;;;;19.50;11.80;;;;;;;1.12;86.17;102556.67;107273;1258;73636;-91
2023/01/22 20:20:43;;;;;;;25.80;12.00;;;;;;;1.19;86.25;102554.16;107097;1251;65028;-92
2023/01/22 20:23:27;;;;;;;23.60;13.10;;;;;;;1.31;86.18;102553.24;108032;1251;75827;-91
2023/01/22 20:26:00;;;;;;;22.60;11.90;;;;;;;1.41;85.59;102554.03;108198;1251;60726;-92
2023/01/22 20:28:30;;;;;;;19.40;11.80;;;;;;;1.41;84.62;102556.96;107397;1251;60287;-91
2023/01/22 20:31:02;;;;;;;21.40;12.90;;;;;;;1.32;84.32;102553.27;107507;1251;73239;-94
2023/01/22 20:33:32;;;;;;;20.90;12.20;;;;;;;1.26;84.14;102553.54;107992;1252;62853;-92
2023/01/22 20:36:07;;;;;;;21.80;11.90;;;;;;;1.26;84.02;102555.09;108298;1255;73296;-91
2023/01/22 20:38:36;;;;;;;19.20;12.80;;;;;;;1.28;84.24;102556.15;109102;1251;59495;-93
2023/01/22 20:41:10;;;;;;;17.80;10.90;;;;;;;1.32;84.05;102556.72;109880;1251;60925;-90
2023/01/22 20:43:39;;;;;;;21.70;11.60;;;;;;;1.33;83.49;102557.06;109598;1251;73857;-96
2023/01/22 20:46:11;;;;;;;22.30;12.20;;;;;;;1.23;83.26;102550.25;108980;1251;64159;-93
2023/01/22 20:48:40;;;;;;;19.70;13.30;;;;;;;1.17;83.29;102554.15;109409;1250;72391;-93
2023/01/22 20:51:23;;;;;;;23.80;11.70;;;;;;;1.18;83.73;102555.20;109051;1251;60468;-92
2023/01/22 20:53:55;;;;;;;26.50;14.70;;;;;;;1.19;83.45;102551.23;108188;1251;60703;-92
2023/01/22 20:56:31;;;;;;;19.80;10.90;;;;;;;1.17;83.65;102547.77;108299;1251;74586;-94
2023/01/22 20:59:27;;;;;;;;;;;;;;;1.21;83.71;102554.88;108538;1253;63742;-95
2023/01/22 21:02:45;;;;;;;19.70;11.80;;;;;;;1.18;83.42;102558.12;109275;1247;72706;31
2023/01/22 21:09:40;;;;;;;19.50;11.40;;;;;;;1.03;83.77;102555.20;109316;1255;59527;-92
2023/01/22 21:12:12;;;;;;;20.40;12.30;;;;;;;1.03;83.63;102558.48;109037;1257;72850;-93
2023/01/22 21:14:42;;;;;;;18.50;11.30;;;;;;;1.00;83.67;102555.52;109101;1257;63849;-93
2023/01/22 21:17:12;;;;;;;17.10;10.90;;;;;;;0.96;83.66;102552.55;109068;1257;72590;-91
2023/01/22 21:19:39;;;;;;;21.00;11.20;;;;;;;1.00;84.09;102554.48;108992;1257;61208;-93
2023/01/22 21:22:09;;;;;;;16.60;10.70;;;;;;;1.06;84.31;102547.48;109190;1257;60326;-93
2023/01/22 21:24:37;;;;;;;16.40;10.10;;;;;;;1.15;84.06;102552.58;109179;1257;72845;-93
2023/01/22 21:27:05;;;;;;;22.00;11.30;;;;;;;1.14;83.44;102552.73;109127;1257;63599;-92
2023/01/22 21:29:32;;;;;;;16.80;11.10;;;;;;;1.13;83.70;102553.94;109257;1257;73556;-91
2023/01/22 21:32:01;;;;;;;16.00;10.50;;;;;;;1.19;83.52;102552.79;108934;1257;59558;-92
2023/01/22 21:34:31;;;;;;;17.20;11.60;;;;;;;1.18;83.22;102548.30;109062;1257;60877;-92
2023/01/22 21:36:58;;;;;;;16.40;10.70;;;;;;;1.18;82.92;102546.75;108475;1257;72060;-91
2023/01/22 21:39:43;;;;;;;18.90;11.90;;;;;;;1.18;82.74;102549.52;109385;1257;63483;-92
2023/01/22 21:47:42;;;;;;;15.60;10.00;;;;;;;1.19;82.77;102540.38;109079;1258;59249;-92
2023/01/22 21:50:10;;;;;;;17.60;10.80;;;;;;;1.21;82.79;102541.78;109240;1257;71826;-92
2023/01/22 21:52:38;;;;;;;16.90;9.90;;;;;;;1.24;82.86;102540.43;109382;1257;63847;-92
2023/01/22 21:55:06;;;;;;;16.90;10.70;;;;;;;1.29;82.60;102542.73;109112;1250;72426;-92
2023/01/22 21:57:33;;;;;;;18.50;11.20;;;;;;;1.24;82.23;102540.78;109007;1262;58449;-92
2023/01/22 22:00:03;;;;;;;16.90;10.20;;;;;;;1.20;82.46;102544.70;109308;1257;60767;-91
2023/01/22 22:02:31;;;;;;;18.20;10.90;;;;;;;1.23;82.60;102549.21;109067;1257;72787;-91
2023/01/22 22:04:58;;;;;;;16.90;10.80;;;;;;;1.23;82.37;102550.09;109063;1257;63581;-90
2023/01/22 22:07:26;;;;;;;14.10;10.00;;;;;;;1.25;82.33;102551.83;109207;1257;71606;-90
2023/01/22 22:09:53;;;;;;;17.70;10.50;;;;;;;1.22;82.07;102553.86;108980;1257;61291;-90
2023/01/22 22:12:20;;;;;;;16.10;9.80;;;;;;;1.16;82.04;102553.61;107483;1262;60485;-90
2023/01/22 22:14:48;;;;;;;12.80;9.30;;;;;;;1.12;82.31;102555.82;107069;1260;75021;-89
2023/01/22 22:17:16;;;;;;;22.00;11.20;;;;;;;1.13;82.67;102559.11;106828;1257;64964;-90
2023/01/22 22:19:43;;;;;;;15.40;10.50;;;;;;;1.17;82.65;102553.64;106350;1257;72685;-91
2023/01/22 22:22:10;;;;;;;15.10;10.40;;;;;;;1.16;82.31;102557.92;106283;1261;59971;-91
2023/01/22 22:24:40;;;;;;;13.40;9.80;;;;;;;1.10;82.44;102559.76;106515;1260;59988;-90
2023/01/22 22:27:09;;;;;;;22.50;12.00;;;;;;;1.08;82.63;102552.51;106360;1257;73170;-91
2023/01/22 22:29:37;;;;;;;17.70;10.40;;;;;;;1.08;82.77;102548.88;106685;1257;64682;-91
2023/01/22 22:32:05;;;;;;;17.10;10.10;;;;;;;1.06;82.48;102552.83;107452;1257;73542;-91
2023/01/22 22:34:39;;;;;;;14.60;9.80;;;;;;;0.98;82.42;102550.16;108806;1260;61084;-91
2023/01/22 22:37:16;;;;;;;16.90;10.10;;;;;;;0.94;82.57;102551.66;107120;1265;59990;-91
2023/01/22 22:39:43;;;;;;;14.90;9.80;;;;;;;0.92;82.93;102550.95;106483;1262;73523;-91
2023/01/22 22:42:10;;;;;;;16.10;10.30;;;;;;;0.95;83.19;102548.40;106054;1262;64850;-91
2023/01/22 22:44:38;;;;;;;22.00;11.20;;;;;;;1.01;83.23;102549.67;105789;1261;72513;-92
2023/01/22 22:47:05;;;;;;;17.90;10.40;;;;;;;1.02;83.14;102550.91;105781;1261;59999;-92
2023/01/22 22:49:33;;;;;;;19.20;9.70;;;;;;;1.00;82.97;102551.23;105883;1261;61152;-89
2023/01/22 22:52:12;;;;;;;16.30;10.10;;;;;;;0.94;82.94;102548.90;105887;1265;73008;-90
2023/01/22 22:54:39;;;;;;;18.70;11.00;;;;;;;0.87;82.94;102552.09;106773;1262;64523;-92
2023/01/22 22:57:06;;;;;;;21.00;10.70;;;;;;;0.80;83.30;102554.77;106917;1262;71890;-92
2023/01/22 22:59:33;;;;;;;16.90;9.70;;;;;;;0.75;83.64;102554.02;106232;1263;60852;-89
2023/01/22 23:02:00;;;;;;;18.10;10.80;;;;;;;0.71;83.86;102557.25;106537;1259;61391;-90
2023/01/22 23:04:28;;;;;;;17.70;11.00;;;;;;;0.71;84.20;102553.98;106821;1259;72963;-91
2023/01/22 23:06:56;;;;;;;19.40;11.70;;;;;;;0.73;84.41;102558.13;107301;1259;64775;-91
2023/01/22 23:09:23;;;;;;;20.00;12.70;;;;;;;0.70;84.54;102552.94;106044;1259;72882;-91
